createdAt,value
2017-12-27T18:07:44.107Z,98142.48
2017-12-27T18:10:15.479Z,98150.83
2017-12-27T18:12:47.920Z,98158.68
2017-12-27T18:15:23.188Z,98154.13
2017-12-27T18:20:27.553Z,98165.30
2017-12-27T18:25:38.505Z,98167.77
2017-12-27T18:30:42.073Z,98177.20
2017-12-27T18:33:10.659Z,98178.23
2017-12-27T18:35:40.914Z,98176.79
2017-12-27T18:38:09.694Z,98174.39
2017-12-27T18:40:44.734Z,98172.57
2017-12-27T18:43:15.033Z,98169.95
2017-12-27T18:45:46.467Z,98179.65
2017-12-27T18:48:15.870Z,98178.59
2017-12-27T18:50:43.650Z,98186.33
2017-12-27T18:53:13.616Z,98191.94
2017-12-27T18:55:41.835Z,98195.66
2017-12-27T18:58:16.351Z,98196.30
2017-12-27T19:00:53.135Z,98194.72
2017-12-27T19:03:23.007Z,98200.84
2017-12-27T19:05:53.822Z,98210.70
2017-12-27T19:08:30.616Z,98207.73
2017-12-27T19:10:59.621Z,98212.34
2017-12-27T19:13:27.455Z,98212.22
2017-12-27T19:15:57.402Z,98216.63
2017-12-27T19:18:25.511Z,98216.63
2017-12-27T19:20:56.046Z,98215.91
2017-12-27T19:23:24.804Z,98224.03
2017-12-27T19:26:08.177Z,98218.25
2017-12-27T19:28:37.915Z,98222.23
2017-12-27T19:31:20.223Z,98222.60
2017-12-27T19:33:48.516Z,98220.48
2017-12-27T19:36:17.216Z,98215.51
2017-12-27T19:38:45.609Z,98218.97
2017-12-27T19:41:13.557Z,98222.66
2017-12-27T19:43:43.029Z,98218.57
2017-12-27T19:46:12.766Z,98222.17
2017-12-27T19:48:43.395Z,98228.06
2017-12-27T19:51:12.466Z,98227.66
2017-12-27T19:54:00.792Z,98231.80
2017-12-27T19:59:43.029Z,98225.09
2017-12-27T20:02:10.779Z,98229.86
2017-12-27T20:04:45.779Z,98220.52
2017-12-27T20:07:14.898Z,98229.23
2017-12-27T20:09:43.976Z,98228.56
2017-12-27T20:12:11.923Z,98222.77
2017-12-27T20:14:49.521Z,98222.19
2017-12-27T20:17:17.208Z,98224.81
2017-12-27T20:20:03.648Z,98214.66
2017-12-27T20:22:32.553Z,98215.74
2017-12-27T20:25:00.247Z,98215.45
2017-12-27T20:27:28.979Z,98213.05
2017-12-27T20:29:57.075Z,98212.98
2017-12-27T20:32:24.895Z,98214.44
2017-12-27T20:34:55.335Z,98211.59
2017-12-27T20:37:30.237Z,98218.04
2017-12-27T20:39:58.205Z,98219.27
2017-12-27T20:42:26.439Z,98225.08
2017-12-27T20:44:54.278Z,98221.85
2017-12-27T20:47:22.218Z,98226.42
2017-12-27T20:49:57.048Z,98233.02
2017-12-27T20:52:24.881Z,98224.45
2017-12-27T20:54:56.062Z,98222.46
2017-12-27T20:57:27.304Z,98228.16
2017-12-27T20:59:57.575Z,98232.11
2017-12-27T21:02:26.890Z,98235.28
2017-12-27T21:04:56.017Z,98243.23
2017-12-27T21:07:26.701Z,98243.52
2017-12-27T21:09:54.514Z,98244.30
2017-12-27T21:12:23.987Z,98251.64
2017-12-27T21:14:55.140Z,98247.98
2017-12-27T21:17:22.881Z,98254.87
2017-12-27T21:19:51.073Z,98255.70
2017-12-27T21:22:19.245Z,98259.97
2017-12-27T21:24:47.035Z,98266.73
2017-12-27T21:29:53.232Z,98272.98
2017-12-27T21:35:30.878Z,98284.38
2017-12-27T21:38:13.939Z,98294.91
2017-12-27T21:40:48.848Z,98307.89
2017-12-27T21:43:29.106Z,98320.50
2017-12-27T21:46:00.013Z,98320.23
2017-12-27T21:48:34.250Z,98325.34
2017-12-27T21:51:06.100Z,98323.77
2017-12-27T21:53:48.811Z,98321.08
2017-12-27T21:56:26.192Z,98328.97
2017-12-27T22:08:14.642Z,98361.58
2017-12-27T22:10:47.314Z,98375.97
2017-12-27T22:13:16.780Z,98378.20
2017-12-27T22:15:45.691Z,98381.42
2017-12-27T22:18:14.254Z,98382.75
2017-12-27T22:20:47.561Z,98392.91
2017-12-27T22:23:17.572Z,98392.98
2017-12-27T22:25:45.334Z,98400.63
2017-12-27T22:28:13.115Z,98407.78
2017-12-27T22:30:41.253Z,98405.97
2017-12-27T22:33:10.256Z,98418.23
2017-12-27T22:35:39.046Z,98411.59
2017-12-27T22:38:06.752Z,98417.73
2017-12-27T22:40:34.479Z,98424.40
2017-12-27T22:43:02.338Z,98424.00
2017-12-27T22:45:30.575Z,98427.43
2017-12-27T22:47:58.496Z,98442.30
2017-12-27T22:50:32.351Z,98436.25
2017-12-27T22:53:03.952Z,98449.19
2017-12-27T22:55:32.555Z,98446.91
2017-12-27T22:58:00.337Z,98454.38
2017-12-27T23:00:28.437Z,98453.02
2017-12-27T23:02:56.299Z,98471.20
2017-12-27T23:05:25.324Z,98475.39
2017-12-27T23:07:53.581Z,98476.17
2017-12-27T23:10:21.519Z,98484.70
2017-12-27T23:12:53.610Z,98491.71
2017-12-27T23:15:29.485Z,98498.03
2017-12-27T23:18:01.831Z,98505.82
2017-12-27T23:20:30.023Z,98516.61
2017-12-27T23:22:58.856Z,98511.96
2017-12-27T23:25:26.660Z,98503.73
2017-12-27T23:27:54.732Z,98511.66
2017-12-27T23:30:22.418Z,98522.48
2017-12-27T23:32:50.458Z,98513.30
2017-12-27T23:35:18.337Z,98510.70
2017-12-27T23:37:46.314Z,98511.52
2017-12-27T23:40:21.970Z,98512.30
2017-12-27T23:42:56.146Z,98523.61
2017-12-27T23:45:24.032Z,98524.13
2017-12-27T23:47:52.105Z,98526.42
2017-12-27T23:50:19.899Z,98528.30
2017-12-27T23:52:47.932Z,98546.14
2017-12-27T23:55:17.944Z,98548.88
2017-12-27T23:57:45.827Z,98561.22
